Time;durP1;ratioP1;P1;durP2;ratioP2;P2;SDS_P1;SDS_P2;PMS_P1;PMS_P2;Temp;Humidity;BMP_temperature;BMP_pressure;BME280_temperature;BME280_humidity;BME280_pressure;Samples;Min_cycle;Max_cycle;Signal;HPM_P1;HPM_P2
2023/07/05 00:00:24;;;;;;;8.43;5.70;;;;;;;22.26;53.21;98929.28;5127102;28;20097;-73
2023/07/05 00:02:51;;;;;;;7.90;6.40;;;;;;;22.24;53.63;98937.56;5128149;28;20093;-72
2023/07/05 00:05:18;;;;;;;8.60;5.78;;;;;;;22.36;53.04;98927.25;5128311;28;20047;-73
2023/07/05 00:07:45;;;;;;;8.32;5.88;;;;;;;22.37;52.61;98927.09;5127803;28;20040;-73
2023/07/05 00:10:13;;;;;;;7.70;5.60;;;;;;;22.36;52.35;98924.56;5127723;28;20085;-72
2023/07/05 00:12:40;;;;;;;7.43;5.35;;;;;;;22.42;52.36;98922.06;5126816;28;20040;-72
2023/07/05 00:15:08;;;;;;;6.78;5.70;;;;;;;22.31;52.53;98924.22;5127635;28;20044;-72
2023/07/05 00:17:36;;;;;;;8.27;6.20;;;;;;;22.30;52.58;98926.09;5127332;28;20044;-73
2023/07/05 00:20:05;;;;;;;8.52;5.72;;;;;;;22.19;53.08;98929.13;5127835;28;20043;-73
2023/07/05 00:22:32;;;;;;;7.20;5.57;;;;;;;22.15;53.08;98921.53;5127792;28;20093;-73
2023/07/05 00:24:58;;;;;;;9.65;6.63;;;;;;;22.08;53.11;98922.22;5127747;28;20054;-73
2023/07/05 00:27:26;;;;;;;7.60;5.90;;;;;;;22.10;53.05;98917.50;5127611;28;20085;-73
2023/07/05 00:29:53;;;;;;;8.60;6.25;;;;;;;22.21;52.97;98913.59;5127352;28;20054;-73
2023/07/05 00:32:21;;;;;;;8.27;5.47;;;;;;;22.17;53.16;98916.81;5127351;27;20048;-73
2023/07/05 00:34:48;;;;;;;8.38;5.57;;;;;;;22.14;53.06;98909.06;5127489;28;20165;-73
2023/07/05 00:37:14;;;;;;;8.98;5.85;;;;;;;21.71;53.09;98836.34;5126375;28;20122;-74
2023/07/05 00:39:41;;;;;;;6.63;5.32;;;;;;;22.05;53.72;98900.97;5127441;28;20192;-72
2023/07/05 00:42:08;;;;;;;7.43;5.63;;;;;;;;;;5127326;28;20043;-72
2023/07/05 00:44:36;;;;;;;8.63;6.07;;;;;;;22.06;53.64;98909.91;5127131;28;20207;-73
2023/07/05 00:47:08;;;;;;;8.23;5.38;;;;;;;21.98;53.70;98902.63;5127234;28;20084;-73
2023/07/05 00:49:37;;;;;;;8.38;6.03;;;;;;;21.98;53.63;98902.63;5126968;28;20115;-73
2023/07/05 00:52:11;;;;;;;6.97;5.90;;;;;;;21.95;54.12;98891.34;5126941;28;20046;-73
2023/07/05 00:54:42;;;;;;;6.97;5.80;;;;;;;21.51;54.02;98818.81;5126065;28;20047;-73
2023/07/05 00:57:15;;;;;;;9.70;6.30;;;;;;;21.82;54.18;98899.94;5127416;28;20047;-73
2023/07/05 00:59:49;;;;;;;8.00;6.32;;;;;;;21.90;54.20;98899.09;5127078;28;20062;-73
2023/07/05 01:02:16;;;;;;;7.85;5.65;;;;;;;21.95;53.88;98894.88;5127328;28;20089;-73
2023/07/05 01:04:44;;;;;;;7.45;5.75;;;;;;;21.78;54.21;98898.53;5126370;28;20085;-73
2023/07/05 01:07:10;;;;;;;8.90;5.93;;;;;;;21.94;53.95;98887.81;5124991;28;20059;-72
2023/07/05 01:09:37;;;;;;;8.98;6.03;;;;;;;21.94;53.95;98887.81;5126850;28;20043;-72
2023/07/05 01:12:12;;;;;;;8.48;6.35;;;;;;;21.78;54.42;98872.41;5126842;28;20052;-73
2023/07/05 01:14:48;;;;;;;8.15;5.70;;;;;;;21.85;54.67;98882.56;5126801;28;20077;-72
2023/07/05 01:17:22;;;;;;;6.85;5.30;;;;;;;21.95;54.14;98888.66;5126532;28;20299;-72
2023/07/05 01:20:09;;;;;;;8.48;6.28;;;;;;;21.71;54.87;98884.03;5126733;28;20044;-72
2023/07/05 01:23:16;;;;;;;9.88;6.00;;;;;;;21.76;54.49;98877.13;5126985;28;20047;-72
2023/07/05 01:26:09;;;;;;;7.43;6.05;;;;;;;21.73;55.00;98879.31;5121491;28;20052;-72
2023/07/05 01:29:09;;;;;;;14.30;6.93;;;;;;;21.73;54.88;98885.56;5126915;28;20051;-72
2023/07/05 01:32:08;;;;;;;8.15;5.90;;;;;;;21.81;54.46;98883.91;5125721;28;20123;-72
2023/07/05 01:34:44;;;;;;;8.70;5.72;;;;;;;21.62;54.71;98883.19;5126187;28;20059;-72
2023/07/05 01:37:29;;;;;;;8.43;5.50;;;;;;;21.65;54.78;98877.47;5126757;28;20187;-73
2023/07/05 01:39:56;;;;;;;8.35;6.45;;;;;;;21.61;54.89;98884.19;5125250;28;20059;-72
2023/07/05 01:42:30;;;;;;;6.90;5.70;;;;;;;21.57;55.03;98879.31;5126167;28;20348;-72
2023/07/05 01:44:57;;;;;;;7.80;6.00;;;;;;;21.60;55.16;98873.56;5125266;28;20292;-72
2023/07/05 01:47:32;;;;;;;7.10;5.22;;;;;;;21.59;54.98;98867.34;5126296;28;20077;-73
2023/07/05 01:50:08;;;;;;;7.75;5.53;;;;;;;21.64;54.76;98872.22;5126309;28;20059;-72
2023/07/05 01:52:40;;;;;;;7.45;5.53;;;;;;;21.59;54.91;98875.44;5126300;28;20054;-72
2023/07/05 01:55:13;;;;;;;9.30;6.32;;;;;;;21.53;55.12;98880.66;5126276;28;20043;-73
2023/07/05 01:57:46;;;;;;;9.13;6.90;;;;;;;21.50;55.30;98873.72;5125986;28;20040;-72
2023/07/05 02:00:16;;;;;;;7.65;5.50;;;;;;;21.03;55.62;98803.38;5126523;28;20051;-72
2023/07/05 02:02:49;;;;;;;8.20;6.28;;;;;;;21.46;55.67;98865.13;5126535;28;20032;-72
2023/07/05 02:05:19;;;;;;;9.10;6.32;;;;;;;21.12;55.52;98795.16;5126288;28;20047;-72
2023/07/05 02:07:46;;;;;;;9.98;6.13;;;;;;;21.54;55.62;98868.84;5125279;28;20044;-73
2023/07/05 02:10:14;;;;;;;10.05;5.78;;;;;;;21.54;55.82;98876.94;5126171;28;20043;-72
2023/07/05 02:12:41;;;;;;;9.00;6.75;;;;;;;21.55;55.62;98875.94;5125828;28;20048;-73
2023/07/05 02:15:09;;;;;;;7.88;5.55;;;;;;;21.57;55.76;98880.16;5126094;28;20044;-72
2023/07/05 02:17:35;;;;;;;7.80;5.72;;;;;;;21.52;55.46;98876.25;5127546;28;20035;-72
2023/07/05 02:20:02;;;;;;;7.93;5.88;;;;;;;21.36;56.18;98868.97;5130120;28;20353;-71
2023/07/05 02:22:31;;;;;;;6.65;5.75;;;;;;;20.83;56.26;98802.78;5130131;27;20040;-72
2023/07/05 02:24:57;;;;;;;9.20;5.78;;;;;;;21.33;56.05;98875.53;5130074;28;20066;-72
2023/07/05 02:27:24;;;;;;;6.03;4.75;;;;;;;21.27;56.41;98868.13;5129677;28;20047;-72
2023/07/05 02:29:51;;;;;;;6.45;5.15;;;;;;;19.00;55.93;98490.38;5129941;28;20252;-72
2023/07/05 02:32:17;;;;;;;7.72;5.65;;;;;;;21.23;56.17;98872.16;5129905;28;20079;-72
2023/07/05 02:34:44;;;;;;;6.50;5.63;;;;;;;21.20;56.26;98867.09;5129884;28;20047;-73
2023/07/05 02:37:12;;;;;;;7.35;5.18;;;;;;;21.18;56.30;98869.09;5130113;28;20288;-72
2023/07/05 02:39:41;;;;;;;6.63;5.35;;;;;;;21.08;56.58;98863.84;5129758;28;20088;-73
2023/07/05 02:42:09;;;;;;;7.57;5.22;;;;;;;21.07;56.72;98854.06;5129746;28;20051;-72
2023/07/05 02:44:36;;;;;;;6.95;5.15;;;;;;;21.06;56.47;98865.03;5129948;28;20051;-72
2023/07/05 02:47:03;;;;;;;7.68;4.97;;;;;;;21.08;56.64;98863.00;5129250;28;20307;-72
2023/07/05 02:49:30;;;;;;;6.72;5.82;;;;;;;21.06;56.98;98860.47;5128494;28;20139;-72
2023/07/05 02:51:57;;;;;;;8.27;5.60;;;;;;;20.91;57.21;98856.69;5128442;28;20035;-72
2023/07/05 02:54:24;;;;;;;8.55;5.57;;;;;;;20.97;57.11;98863.28;5129512;28;20035;-72
2023/07/05 02:56:52;;;;;;;7.70;5.75;;;;;;;21.05;56.74;98860.63;5129475;28;20043;-73
2023/07/05 02:59:19;;;;;;;6.93;5.15;;;;;;;21.06;56.50;98865.88;5129395;28;20129;-73
2023/07/05 03:01:45;;;;;;;7.07;5.65;;;;;;;20.99;57.22;98864.78;5129089;28;20074;-72
2023/07/05 03:04:13;;;;;;;8.07;5.80;;;;;;;20.93;57.19;98864.59;5129327;28;20051;-72
2023/07/05 03:06:40;;;;;;;7.82;5.88;;;;;;;20.92;56.93;98869.16;5128944;28;20036;-72
2023/07/05 03:09:07;;;;;;;6.45;5.63;;;;;;;20.79;57.41;98864.22;5129516;28;20043;-72
2023/07/05 03:11:34;;;;;;;8.07;5.60;;;;;;;20.85;57.11;98867.25;5129214;28;20110;-73
2023/07/05 03:14:02;;;;;;;8.38;5.53;;;;;;;20.79;57.38;98872.28;5129135;28;20116;-73
2023/07/05 03:16:28;;;;;;;6.90;5.43;;;;;;;20.82;57.13;98873.81;5129066;28;20039;-72
2023/07/05 03:18:55;;;;;;;10.02;5.10;;;;;;;20.73;57.46;98875.63;5129078;28;20256;-72
2023/07/05 03:21:22;;;;;;;8.13;5.70;;;;;;;20.47;58.06;98881.03;5129259;28;20187;-73
2023/07/05 03:23:49;;;;;;;6.93;5.95;;;;;;;20.46;58.30;98878.50;5129213;28;20043;-72
2023/07/05 03:26:16;;;;;;;9.73;6.55;;;;;;;20.22;58.91;98886.38;5128540;28;20047;-72
2023/07/05 03:28:43;;;;;;;8.02;6.03;;;;;;;20.31;58.66;98889.00;5128239;28;20054;-73
2023/07/05 03:31:13;;;;;;;7.50;6.00;;;;;;;20.34;58.64;98893.22;5127484;28;20047;-73
2023/07/05 03:33:40;;;;;;;7.00;5.70;;;;;;;20.20;58.63;98891.91;5128326;28;20073;-72
2023/07/05 03:36:11;;;;;;;9.05;5.47;;;;;;;20.00;59.49;98888.56;5128374;28;20062;-72
2023/07/05 03:38:38;;;;;;;7.72;6.07;;;;;;;20.15;58.84;98887.00;5127976;28;20210;-72
2023/07/05 03:41:07;;;;;;;10.35;6.20;;;;;;;20.13;58.80;98874.72;5128259;28;20039;-73
2023/07/05 03:43:37;;;;;;;7.70;5.97;;;;;;;20.10;59.27;98881.25;5128285;28;20357;-73
2023/07/05 03:46:06;;;;;;;7.78;5.43;;;;;;;19.95;59.83;98881.97;5128772;28;20047;-72
2023/07/05 03:48:37;;;;;;;9.50;5.70;;;;;;;20.18;59.12;98881.31;5128175;28;20047;-73
2023/07/05 03:51:04;;;;;;;8.15;6.18;;;;;;;20.23;58.91;98888.09;5128136;28;20040;-72
2023/07/05 03:53:33;;;;;;;6.85;5.40;;;;;;;20.27;58.75;98873.31;5128372;28;20088;-73
2023/07/05 03:56:01;;;;;;;8.23;5.97;;;;;;;20.24;58.95;98871.78;5128094;28;20040;-73
2023/07/05 03:58:28;;;;;;;6.60;4.95;;;;;;;20.24;58.85;98866.41;5128042;28;20103;-72
2023/07/05 04:01:04;;;;;;;6.57;5.35;;;;;;;20.33;58.66;98883.47;5128449;28;20036;-72
2023/07/05 04:03:31;;;;;;;10.77;5.80;;;;;;;20.30;58.51;98870.31;5127932;28;20058;-72
2023/07/05 04:06:00;;;;;;;7.18;5.60;;;;;;;20.28;58.86;98872.31;5128384;28;20048;-72
2023/07/05 04:08:26;;;;;;;6.35;5.68;;;;;;;20.29;58.95;98865.94;5128256;28;20054;-73
2023/07/05 04:10:53;;;;;;;7.40;5.80;;;;;;;20.21;59.41;98858.63;5128281;28;20051;-73
2023/07/05 04:13:20;;;;;;;8.57;5.80;;;;;;;20.17;59.73;98850.03;5127677;28;20044;-73
2023/07/05 04:15:46;;;;;;;8.40;6.22;;;;;;;20.38;58.83;98844.31;5128143;28;20036;-72
2023/07/05 04:18:13;;;;;;;6.72;5.30;;;;;;;20.30;59.26;98857.72;5127607;27;20098;-73
2023/07/05 04:20:40;;;;;;;8.23;5.82;;;;;;;20.39;59.10;98859.44;5127811;28;20065;-73
2023/07/05 04:23:08;;;;;;;7.03;5.70;;;;;;;20.33;59.51;98865.47;5126628;28;20291;-72
2023/07/05 04:25:34;;;;;;;9.38;7.22;;;;;;;20.22;59.22;98846.00;5126633;28;20093;-72
2023/07/05 04:28:02;;;;;;;8.57;6.72;;;;;;;20.39;59.28;98872.91;5126408;28;20039;-72
2023/07/05 04:30:28;;;;;;;10.95;8.45;;;;;;;20.33;58.81;98864.63;5126663;28;20043;-73
2023/07/05 04:32:55;;;;;;;7.43;6.15;;;;;;;20.31;59.31;98870.16;5127263;28;20051;-73
2023/07/05 04:35:21;;;;;;;9.38;6.63;;;;;;;20.50;58.66;98866.41;5127504;28;20055;-72
2023/07/05 04:37:48;;;;;;;9.27;6.55;;;;;;;20.57;58.57;98870.16;5127498;28;20046;-73
2023/07/05 04:40:16;;;;;;;8.57;5.95;;;;;;;20.62;58.03;98865.13;5126110;28;20047;-73
2023/07/05 04:42:43;;;;;;;8.75;6.28;;;;;;;20.58;57.90;98863.75;5127435;28;20051;-72
2023/07/05 04:45:10;;;;;;;8.82;6.10;;;;;;;20.47;57.96;98866.72;5127587;28;20085;-72
2023/07/05 04:47:37;;;;;;;9.75;5.95;;;;;;;20.61;57.03;98854.53;5127201;28;20050;-73
2023/07/05 04:50:04;;;;;;;7.38;4.78;;;;;;;20.49;56.86;98862.03;5127511;28;20097;-73
2023/07/05 04:52:31;;;;;;;7.60;5.68;;;;;;;20.51;56.70;98857.31;5126920;28;20088;-73
2023/07/05 04:54:58;;;;;;;6.95;5.22;;;;;;;20.67;56.01;98864.66;5127425;28;20035;-73
2023/07/05 04:57:28;;;;;;;11.20;5.18;;;;;;;20.02;56.09;98751.22;5127115;28;20048;-73
2023/07/05 04:59:55;;;;;;;8.55;5.65;;;;;;;19.61;55.54;98681.03;5127039;28;20043;-72
2023/07/05 05:02:22;;;;;;;7.60;5.13;;;;;;;20.15;55.99;98776.69;5126766;28;20073;-73
2023/07/05 05:04:49;;;;;;;8.70;5.50;;;;;;;20.73;56.04;98866.69;5126652;28;20051;-74
2023/07/05 05:07:15;;;;;;;8.45;5.47;;;;;;;20.52;55.89;98829.41;5126574;28;20050;-72
2023/07/05 05:09:42;;;;;;;6.35;4.57;;;;;;;20.80;55.62;98871.28;5126594;28;20242;-72
2023/07/05 05:12:09;;;;;;;6.78;4.90;;;;;;;20.79;55.66;98872.28;5127095;28;20058;-73
2023/07/05 05:14:37;;;;;;;9.35;5.55;;;;;;;20.76;55.37;98850.22;5126840;28;20050;-72
2023/07/05 05:17:04;;;;;;;7.70;6.53;;;;;;;20.86;55.75;98864.41;5126457;28;20036;-72
2023/07/05 05:19:31;;;;;;;7.43;5.68;;;;;;;20.86;55.96;98868.94;5126653;28;20063;-73
2023/07/05 05:21:58;;;;;;;6.80;5.13;;;;;;;20.91;55.10;98870.16;5126695;28;20241;-72
2023/07/05 05:24:24;;;;;;;8.20;5.18;;;;;;;20.30;54.75;98755.44;5126664;28;20062;-72
2023/07/05 05:26:51;;;;;;;6.70;5.60;;;;;;;20.97;54.69;98869.50;5126297;28;20051;-73
2023/07/05 05:29:18;;;;;;;5.28;4.43;;;;;;;20.89;54.65;98864.09;5126642;28;20047;-73
2023/07/05 05:31:46;;;;;;;7.90;4.72;;;;;;;20.91;54.52;98864.75;5126443;28;20043;-72
2023/07/05 05:34:13;;;;;;;10.32;5.00;;;;;;;20.95;54.50;98860.75;5126475;28;20055;-73
2023/07/05 05:36:39;;;;;;;10.75;5.20;;;;;;;20.95;54.16;98862.59;5125385;28;20039;-73
2023/07/05 05:39:07;;;;;;;6.72;5.38;;;;;;;20.96;53.92;98862.44;5125255;28;20207;-73
2023/07/05 05:41:34;;;;;;;9.20;5.03;;;;;;;21.03;54.06;98855.41;5126253;28;20047;-73
2023/07/05 05:44:01;;;;;;;6.53;5.18;;;;;;;21.00;53.92;98854.88;5126375;28;20054;-73
2023/07/05 05:46:28;;;;;;;8.23;5.93;;;;;;;21.01;53.68;98859.25;5126080;28;20051;-72
2023/07/05 05:48:56;;;;;;;6.10;4.85;;;;;;;20.97;53.71;98864.13;5126030;28;20345;-72
2023/07/05 05:51:22;;;;;;;7.90;5.47;;;;;;;21.05;53.71;98868.72;5126313;28;20043;-73
2023/07/05 05:53:49;;;;;;;7.30;5.25;;;;;;;21.00;53.83;98871.88;5125632;28;20299;-73
2023/07/05 05:56:16;;;;;;;7.28;4.63;;;;;;;20.99;53.87;98866.66;5126253;28;20052;-73
2023/07/05 05:58:43;;;;;;;10.65;5.75;;;;;;;21.00;53.64;98871.03;5126202;28;20043;-73
2023/07/05 06:01:12;;;;;;;7.55;4.40;;;;;;;21.04;53.64;98867.88;5125713;28;20181;-73
2023/07/05 06:03:38;;;;;;;10.38;5.45;;;;;;;20.97;53.91;98869.50;5126189;28;20200;-73
2023/07/05 06:06:07;;;;;;;7.57;5.00;;;;;;;21.08;53.98;98866.53;5126169;28;20043;-73
2023/07/05 06:08:33;;;;;;;7.35;4.97;;;;;;;21.11;53.82;98865.38;5125014;28;20035;-73
2023/07/05 06:11:03;;;;;;;7.95;4.63;;;;;;;21.12;54.22;98869.75;5126157;28;20062;-72
2023/07/05 06:13:31;;;;;;;6.38;4.80;;;;;;;21.05;54.45;98858.78;5125021;28;20043;-73
2023/07/05 06:16:00;;;;;;;8.70;5.05;;;;;;;21.08;54.88;98860.31;5126358;28;20246;-73
2023/07/05 06:18:28;;;;;;;11.55;6.32;;;;;;;21.09;55.42;98865.53;5125734;28;20073;-73
2023/07/05 06:20:55;;;;;;;7.65;5.45;;;;;;;21.21;55.55;98865.25;5125774;28;20089;-73
2023/07/05 06:23:23;;;;;;;8.98;5.43;;;;;;;21.27;55.48;98864.56;5124821;28;20039;-73
2023/07/05 06:25:51;;;;;;;7.85;5.22;;;;;;;21.28;55.39;98867.09;5124835;28;20079;-73
2023/07/05 06:28:18;;;;;;;6.55;5.57;;;;;;;21.34;55.76;98860.22;5125561;28;20299;-72
2023/07/05 06:30:46;;;;;;;8.30;5.70;;;;;;;21.40;56.15;98863.09;5125671;28;20065;-73
2023/07/05 06:33:14;;;;;;;6.90;5.47;;;;;;;21.46;56.65;98862.44;5125547;28;20085;-73
2023/07/05 06:35:40;;;;;;;9.18;6.60;;;;;;;21.37;56.96;98863.44;5125870;28;20096;-73
2023/07/05 06:38:07;;;;;;;10.07;6.75;;;;;;;21.43;56.99;98868.16;5125879;28;20326;-72
2023/07/05 06:40:35;;;;;;;13.77;6.30;;;;;;;21.49;57.42;98861.25;5125537;28;20329;-73
2023/07/05 06:43:03;;;;;;;10.00;5.78;;;;;;;21.58;57.20;98864.81;5125825;28;20276;-73
2023/07/05 06:45:29;;;;;;;9.55;6.45;;;;;;;21.63;56.86;98875.94;5125529;28;20036;-72
2023/07/05 06:47:56;;;;;;;7.60;5.45;;;;;;;21.64;56.65;98872.22;5124595;28;20315;-73
2023/07/05 06:50:23;;;;;;;7.32;6.43;;;;;;;21.60;56.76;98874.41;5125739;28;20051;-73
2023/07/05 06:52:50;;;;;;;7.88;5.53;;;;;;;21.48;56.88;98858.72;5125785;28;20261;-73
2023/07/05 06:55:17;;;;;;;9.30;6.20;;;;;;;20.59;56.82;98705.78;5125771;28;20074;-73
2023/07/05 06:57:45;;;;;;;8.10;5.22;;;;;;;21.55;56.89;98867.84;5125242;28;20047;-73
2023/07/05 07:00:13;;;;;;;8.55;5.50;;;;;;;21.54;57.04;98872.38;5125184;28;20039;-73
2023/07/05 07:02:40;;;;;;;7.15;5.65;;;;;;;21.50;57.01;98852.16;5125231;28;20093;-73
2023/07/05 07:05:07;;;;;;;8.57;6.13;;;;;;;20.80;56.98;98742.00;5127793;28;20114;-72
2023/07/05 07:07:34;;;;;;;7.57;5.55;;;;;;;21.59;57.20;98875.44;5128870;28;20044;-73
2023/07/05 07:10:02;;;;;;;7.30;5.25;;;;;;;21.63;57.56;98873.25;5129447;28;20051;-73
2023/07/05 07:12:29;;;;;;;9.48;6.03;;;;;;;21.57;57.50;98877.44;5128849;27;20262;-73
2023/07/05 07:14:57;;;;;;;8.00;5.05;;;;;;;21.54;57.78;98876.94;5129001;28;20054;-73
2023/07/05 07:17:24;;;;;;;7.03;5.75;;;;;;;21.60;57.51;98882.50;5127774;28;20043;-73
2023/07/05 07:19:52;;;;;;;7.30;5.38;;;;;;;21.69;56.88;98880.66;5129325;28;20040;-73
2023/07/05 07:22:18;;;;;;;7.97;5.57;;;;;;;21.62;57.13;98877.78;5128987;28;20100;-73
2023/07/05 07:24:45;;;;;;;7.55;5.05;;;;;;;21.57;57.11;98857.72;5128423;28;20058;-72
2023/07/05 07:27:12;;;;;;;8.63;5.90;;;;;;;21.55;57.46;98884.00;5128536;28;20092;-73
2023/07/05 07:29:39;;;;;;;7.03;5.57;;;;;;;21.55;57.37;98875.94;5128792;28;20040;-73
2023/07/05 07:32:11;;;;;;;8.02;4.97;;;;;;;21.62;57.24;98869.69;5127460;28;20246;-73
2023/07/05 07:34:37;;;;;;;8.02;4.70;;;;;;;21.71;57.15;98878.66;5129001;28;20039;-73
2023/07/05 07:37:05;;;;;;;7.43;5.90;;;;;;;21.59;57.35;98882.69;5128583;28;20051;-73
2023/07/05 07:39:32;;;;;;;9.00;5.70;;;;;;;21.49;57.09;98857.72;5128895;28;20043;-73
2023/07/05 07:41:58;;;;;;;9.75;5.40;;;;;;;21.61;57.10;98876.09;5128593;28;20039;-73
2023/07/05 07:44:25;;;;;;;9.63;5.47;;;;;;;21.60;57.17;98876.28;5128825;28;20053;-72
2023/07/05 07:46:52;;;;;;;6.05;5.18;;;;;;;21.64;57.15;98864.16;5128483;28;20047;-73
2023/07/05 07:49:20;;;;;;;7.45;5.55;;;;;;;21.62;57.38;98871.56;5128106;28;20300;-73
2023/07/05 07:51:47;;;;;;;9.32;6.13;;;;;;;21.15;57.00;98775.13;5127771;28;20089;-73
2023/07/05 07:54:15;;;;;;;8.88;5.07;;;;;;;21.26;57.07;98812.53;5128182;28;20059;-72
2023/07/05 07:56:43;;;;;;;6.85;5.43;;;;;;;21.69;57.34;98870.72;5128554;28;20103;-72
2023/07/05 07:59:10;;;;;;;9.50;6.13;;;;;;;21.82;57.00;98870.25;5127035;28;20035;-73
2023/07/05 08:01:38;;;;;;;10.43;6.03;;;;;;;21.88;56.70;98869.59;5128500;28;20051;-73
2023/07/05 08:04:07;;;;;;;7.65;5.07;;;;;;;21.96;56.18;98863.34;5127791;28;20040;-73
2023/07/05 08:06:38;;;;;;;9.75;6.43;;;;;;;22.18;55.65;98865.38;5127739;28;20044;-72
2023/07/05 08:09:06;;;;;;;9.60;5.72;;;;;;;22.20;55.92;98863.34;5128173;28;20100;-73
2023/07/05 08:11:32;;;;;;;9.80;5.30;;;;;;;22.22;55.81;98855.91;5127909;28;20088;-73
2023/07/05 08:13:59;;;;;;;12.15;5.50;;;;;;;22.47;55.65;98859.44;5127787;28;20192;-72
2023/07/05 08:16:26;;;;;;;10.00;5.13;;;;;;;22.66;54.65;98860.94;5127184;28;20051;-73
2023/07/05 08:18:53;;;;;;;8.30;5.88;;;;;;;22.81;54.89;98858.38;5127811;28;20089;-72
2023/07/05 08:21:20;;;;;;;6.78;5.20;;;;;;;22.91;54.41;98854.44;5126866;28;20043;-73
2023/07/05 08:23:48;;;;;;;10.02;5.78;;;;;;;23.07;54.22;98852.69;5127722;28;20092;-73
2023/07/05 08:26:16;;;;;;;7.78;5.53;;;;;;;23.49;53.51;98846.91;5127389;28;20092;-73
2023/07/05 08:28:43;;;;;;;7.85;4.93;;;;;;;23.46;53.09;98842.69;5127497;28;20050;-73
2023/07/05 08:31:10;;;;;;;10.35;5.50;;;;;;;23.50;53.07;98848.56;5127806;28;20092;-74
2023/07/05 08:33:38;;;;;;;6.63;5.03;;;;;;;23.65;52.49;98841.38;5127208;28;20104;-73
2023/07/05 08:36:11;;;;;;;6.78;5.00;;;;;;;23.65;52.74;98844.91;5127175;28;20032;-74
2023/07/05 08:38:43;;;;;;;7.28;5.18;;;;;;;23.73;52.47;98835.91;5127235;28;20047;-73
2023/07/05 08:41:19;;;;;;;6.53;4.78;;;;;;;23.99;51.98;98839.09;5127179;28;20074;-73
2023/07/05 08:43:51;;;;;;;6.85;4.68;;;;;;;23.87;51.20;98850.50;5127106;28;20249;-73
2023/07/05 08:46:19;;;;;;;8.25;5.18;;;;;;;23.95;50.53;98832.34;5127055;28;20295;-73
2023/07/05 08:48:49;;;;;;;12.18;5.35;;;;;;;23.88;50.62;98842.19;5126907;28;20051;-73
2023/07/05 08:51:18;;;;;;;5.80;4.43;;;;;;;23.80;50.75;98836.00;5127701;28;20195;-74
2023/07/05 08:53:48;;;;;;;5.30;4.28;;;;;;;23.77;51.03;98836.38;5127355;28;20044;-73
2023/07/05 08:56:23;;;;;;;6.78;5.05;;;;;;;23.49;50.83;98801.75;5126868;28;20047;-73
2023/07/05 08:58:57;;;;;;;10.13;5.43;;;;;;;23.77;50.88;98820.16;5126813;28;20092;-73
2023/07/05 09:01:27;;;;;;;6.65;4.93;;;;;;;23.91;50.90;98828.31;5126768;28;20056;-73
2023/07/05 09:03:54;;;;;;;8.80;4.68;;;;;;;23.96;51.09;98835.88;5127278;28;20039;-73
2023/07/05 09:06:25;;;;;;;7.68;5.00;;;;;;;24.09;50.70;98828.00;5127244;28;20039;-73
2023/07/05 09:09:25;;;;;;;9.60;5.18;;;;;;;24.24;50.62;98825.31;5127136;28;20043;-73
2023/07/05 09:12:05;;;;;;;7.85;4.65;;;;;;;24.11;51.01;98830.53;5125709;28;20039;-73
2023/07/05 09:14:41;;;;;;;6.53;4.72;;;;;;;24.23;51.06;98820.94;5126722;28;20047;-73
2023/07/05 09:17:17;;;;;;;9.77;4.95;;;;;;;24.31;50.99;98831.69;5126363;28;20160;-72
2023/07/05 09:19:56;;;;;;;8.18;5.32;;;;;;;24.51;50.77;98824.69;5125539;28;20044;-73
2023/07/05 09:22:28;;;;;;;8.80;5.78;;;;;;;24.69;50.19;98815.38;5126364;28;20292;-73
2023/07/05 09:24:55;;;;;;;7.35;5.32;;;;;;;24.74;50.25;98819.22;5126621;28;20104;-73
2023/07/05 09:27:30;;;;;;;10.13;5.28;;;;;;;24.79;50.33;98814.06;5124836;28;20179;-73
2023/07/05 09:30:01;;;;;;;8.40;5.50;;;;;;;24.44;49.95;98750.63;5126671;28;20100;-73
2023/07/05 09:32:32;;;;;;;8.57;5.50;;;;;;;25.19;49.28;98804.59;5126234;28;20112;-74
2023/07/05 09:35:00;;;;;;;7.80;5.93;;;;;;;25.27;49.62;98801.75;5126447;28;20111;-73
2023/07/05 09:37:29;;;;;;;8.90;5.60;;;;;;;25.33;48.46;98793.91;5126719;28;20044;-74
2023/07/05 09:40:10;;;;;;;9.30;5.03;;;;;;;25.35;47.95;98787.25;5126350;28;20224;-73
2023/07/05 09:42:43;;;;;;;9.20;5.47;;;;;;;25.38;47.68;98789.59;5126349;28;20040;-73
2023/07/05 09:45:12;;;;;;;6.47;4.95;;;;;;;25.64;47.42;98789.00;5125624;28;20046;-73
2023/07/05 09:47:39;;;;;;;5.47;4.55;;;;;;;25.72;46.83;98790.75;5126382;28;20063;-73
2023/07/05 09:50:13;;;;;;;7.40;6.03;;;;;;;25.49;45.56;98696.00;5124994;28;20318;-72
2023/07/05 09:52:40;;;;;;;7.40;5.00;;;;;;;25.92;45.44;98768.16;5124915;28;20039;-72
2023/07/05 09:55:14;;;;;;;5.82;4.30;;;;;;;26.27;44.76;98760.09;5125072;28;20040;-73
2023/07/05 09:57:43;;;;;;;8.40;4.57;;;;;;;26.19;44.42;98774.66;5126316;28;20051;-73
2023/07/05 10:00:27;;;;;;;6.38;4.53;;;;;;;26.11;44.67;98787.56;5126342;28;20054;-72
2023/07/05 10:02:56;;;;;;;5.90;4.75;;;;;;;26.49;43.03;98774.44;5123855;28;20044;-73
2023/07/05 10:05:28;;;;;;;5.95;4.30;;;;;;;26.50;42.56;98784.25;5126063;28;20325;-73
2023/07/05 10:07:57;;;;;;;5.22;4.03;;;;;;;26.58;42.37;98791.41;5125919;28;20207;-73
2023/07/05 10:10:33;;;;;;;8.38;4.22;;;;;;;26.44;42.85;98785.06;5124962;28;20039;-73
2023/07/05 10:13:06;;;;;;;5.55;4.60;;;;;;;26.66;41.51;98774.97;5126350;28;20047;-74
2023/07/05 10:15:32;;;;;;;5.85;3.95;;;;;;;24.84;41.04;98496.44;5126413;28;20101;-73
2023/07/05 10:17:59;;;;;;;4.95;4.15;;;;;;;26.65;40.91;98776.00;5125909;28;20089;-73
2023/07/05 10:20:29;;;;;;;5.03;4.20;;;;;;;26.76;41.32;98773.56;5107942;28;20040;-73
2023/07/05 10:23:02;;;;;;;6.00;4.40;;;;;;;26.79;41.42;98721.50;5126038;28;20089;-74
2023/07/05 10:25:35;;;;;;;8.50;4.47;;;;;;;26.92;41.54;98772.38;5126281;28;20111;-73
2023/07/05 10:28:06;;;;;;;10.67;4.20;;;;;;;26.64;42.04;98758.03;5125887;28;20035;-73
2023/07/05 10:30:48;;;;;;;7.28;4.28;;;;;;;26.20;42.38;98737.47;5125808;28;20130;-73
2023/07/05 10:33:20;;;;;;;6.07;4.70;;;;;;;26.47;42.08;98765.63;5125378;28;20048;-73
2023/07/05 10:35:57;;;;;;;5.47;4.03;;;;;;;26.29;42.71;98695.53;5125931;28;20051;-73
2023/07/05 10:38:28;;;;;;;6.00;5.05;;;;;;;26.74;41.70;98759.34;5126677;28;20070;-74
2023/07/05 10:40:59;;;;;;;4.95;3.83;;;;;;;26.71;41.86;98757.00;5129380;28;20266;-74
2023/07/05 10:43:31;;;;;;;7.72;5.15;;;;;;;26.47;42.00;98752.06;5129553;28;20043;-73
2023/07/05 10:45:58;;;;;;;7.03;4.70;;;;;;;26.50;42.20;98748.94;5128403;28;20047;-73
2023/07/05 10:48:36;;;;;;;7.15;4.50;;;;;;;26.30;42.62;98750.72;5129031;28;20039;-73
2023/07/05 10:51:04;;;;;;;5.85;4.35;;;;;;;26.38;42.49;98740.50;5129783;28;20143;-73
2023/07/05 10:53:32;;;;;;;6.75;4.60;;;;;;;26.43;42.59;98732.59;5129612;28;20065;-73
2023/07/05 10:56:06;;;;;;;6.65;4.55;;;;;;;26.44;42.18;98722.56;5129408;28;20040;-73
2023/07/05 10:58:45;;;;;;;6.57;4.13;;;;;;;26.43;41.65;98721.75;5129291;28;20129;-74
2023/07/05 11:01:18;;;;;;;4.75;3.92;;;;;;;26.49;41.10;98715.50;5129298;28;20088;-74
2023/07/05 11:03:51;;;;;;;5.68;4.25;;;;;;;26.65;40.56;98706.19;5128786;28;20078;-73
2023/07/05 11:06:19;;;;;;;5.33;4.03;;;;;;;26.64;40.80;98704.50;5129471;28;20035;-73
2023/07/05 11:08:46;;;;;;;5.82;3.78;;;;;;;26.72;41.15;98703.50;5128260;28;20547;-73
2023/07/05 11:11:17;;;;;;;5.28;4.35;;;;;;;26.73;41.42;98684.25;5129490;28;20222;-73
2023/07/05 11:13:46;;;;;;;5.03;4.30;;;;;;;26.51;41.46;98642.78;5129206;28;20043;-73
2023/07/05 11:16:18;;;;;;;4.78;4.00;;;;;;;26.81;41.03;98666.94;5128874;28;20081;-73
2023/07/05 11:18:45;;;;;;;8.13;4.90;;;;;;;26.82;40.96;98690.34;5128805;28;20284;-71
2023/07/05 11:21:34;;;;;;;9.40;4.97;;;;;;;26.82;41.02;98698.50;5128798;28;20052;-71
2023/07/05 11:24:00;;;;;;;7.22;4.47;;;;;;;26.87;40.59;98687.84;5129218;28;20039;-72
2023/07/05 11:26:42;;;;;;;6.75;4.10;;;;;;;26.54;40.93;98664.09;5128619;28;20055;-71
2023/07/05 11:29:52;;;;;;;5.55;3.83;;;;;;;26.74;41.53;98693.25;5128206;28;20036;-72
2023/07/05 11:32:21;;;;;;;6.47;4.55;;;;;;;26.48;42.12;98691.25;5128563;28;20052;-72
2023/07/05 11:34:51;;;;;;;6.07;4.07;;;;;;;26.53;42.00;98695.03;5127474;28;20296;-71
2023/07/05 11:37:51;;;;;;;6.22;4.63;;;;;;;26.42;41.96;98694.78;5128893;28;20036;-72
2023/07/05 11:40:58;;;;;;;5.05;4.30;;;;;;;26.49;41.83;98682.88;5125501;28;20212;-72
2023/07/05 11:43:25;;;;;;;6.45;4.25;;;;;;;26.49;41.60;98672.03;5128334;28;20085;-71
2023/07/05 11:45:52;;;;;;;6.85;4.88;;;;;;;26.45;40.89;98669.91;5128205;28;20333;-72